Time;durP1;ratioP1;P1;durP2;ratioP2;P2;SDS_P1;SDS_P2;PMS_P1;PMS_P2;Temp;Humidity;BMP_temperature;BMP_pressure;BME280_temperature;BME280_humidity;BME280_pressure;Samples;Min_cycle;Max_cycle;Signal;HPM_P1;HPM_P2
2022/11/18 00:01:10;;;;;;;;;;;;;;;21.78;50.61;99806.78;5094174;28;3148;-66
2022/11/18 00:03:36;;;;;;;;;;;;;;;21.77;50.52;99805.34;5096310;28;2478;-66
2022/11/18 00:06:03;;;;;;;;;;;;;;;21.78;50.47;99796.00;5089777;28;2811;-66
2022/11/18 00:08:29;;;;;;;;;;;;;;;21.81;50.36;99799.69;5087284;28;2753;-67
2022/11/18 00:10:55;;;;;;;;;;;;;;;21.79;50.53;99790.97;5091264;28;2826;-66
2022/11/18 00:16:07;;;;;;;;;;;;;;;21.79;50.63;99790.97;5086116;28;2854;-67
2022/11/18 00:18:33;;;;;;;;;;;;;;;21.80;50.41;99783.78;5085528;28;2806;-66
2022/11/18 00:21:00;;;;;;;;;;;;;;;21.75;50.37;99788.72;5084889;28;2856;-66
2022/11/18 00:23:27;;;;;;;;;;;;;;;21.73;50.65;99782.91;5084317;28;2891;-66
2022/11/18 00:25:53;;;;;;;;;;;;;;;21.76;50.54;99795.94;5086629;28;2880;-66
2022/11/18 00:28:20;;;;;;;;;;;;;;;21.77;50.64;99799.56;5091116;28;2883;-66
2022/11/18 00:30:46;;;;;;;;;;;;;;;21.74;50.72;99796.66;5101724;28;1716;-66
2022/11/18 00:33:12;;;;;;;;;;;;;;;21.73;50.70;99803.81;5092851;28;2640;-67
2022/11/18 00:35:39;;;;;;;;;;;;;;;21.74;50.68;99801.69;5092227;28;3083;-66
2022/11/18 00:38:05;;;;;;;;;;;;;;;21.72;50.72;99795.88;5093499;28;2759;-66
2022/11/18 00:40:31;;;;;;;;;;;;;;;21.74;50.42;99802.41;5098719;28;2799;-66
2022/11/18 00:42:57;;;;;;;;;;;;;;;21.73;50.78;99795.16;5087690;28;2799;-66
2022/11/18 00:45:24;;;;;;;;;;;;;;;21.73;50.93;99808.84;5078019;28;2841;-66
2022/11/18 00:47:50;;;;;;;;;;;;;;;21.77;50.73;99811.81;5084340;28;1633;-67
2022/11/18 00:50:16;;;;;;;;;;;;;;;21.78;50.70;99803.91;5085785;28;2850;-67
2022/11/18 00:52:43;;;;;;;;;;;;;;;21.77;50.60;99806.06;5083548;28;2816;-66
2022/11/18 00:55:09;;;;;;;;;;;;;;;21.79;50.62;99802.50;5085841;28;2802;-67
2022/11/18 00:57:35;;;;;;;;;;;;;;;21.79;50.44;99803.22;5093612;28;2761;-67
2022/11/18 01:00:02;;;;;;;;;;;;;;;21.78;50.65;99803.91;5094714;28;2723;-67
2022/11/18 01:02:28;;;;;;;;;;;;;;;21.76;50.31;99821.88;5092758;28;1592;-66
2022/11/18 01:04:55;;;;;;;;;;;;;;;21.76;50.68;99813.22;5083582;28;2791;-67
2022/11/18 01:07:21;;;;;;;;;;;;;;;21.75;50.46;99812.50;5073649;28;2802;-67
2022/11/18 01:09:47;;;;;;;;;;;;;;;21.74;50.40;99818.97;5079320;28;2760;-67
2022/11/18 01:14:59;;;;;;;;;;;;;;;21.72;50.73;99808.13;5084657;28;2581;-66
2022/11/18 01:17:28;;;;;;;;;;;;;;;21.71;50.87;99812.41;5087291;28;2666;-67
2022/11/18 01:19:54;;;;;;;;;;;;;;;21.70;50.63;99818.88;5084805;28;3192;-67
2022/11/18 01:22:20;;;;;;;;;;;;;;;21.70;50.73;99816.72;5080894;28;2783;-66
2022/11/18 01:24:47;;;;;;;;;;;;;;;21.72;50.46;99825.41;5086825;28;2929;-67
2022/11/18 01:27:13;;;;;;;;;;;;;;;21.70;50.58;99825.34;5087173;28;2828;-66
2022/11/18 01:29:39;;;;;;;;;;;;;;;21.72;50.83;99834.03;5085002;28;2789;-67
2022/11/18 01:32:06;;;;;;;;;;;;;;;21.74;50.47;99819.69;5086896;28;2803;-67
2022/11/18 01:34:50;;;;;;;;;;;;;;;21.75;50.51;99832.66;5088387;28;3111;-67
2022/11/18 01:37:17;;;;;;;;;;;;;;;21.75;50.66;99826.91;5081516;28;3073;-66
2022/11/18 01:39:43;;;;;;;;;;;;;;;21.78;50.74;99824.09;5089913;28;2835;-67
2022/11/18 01:42:14;;;;;;;;;;;;;;;21.77;50.47;99828.38;5081756;28;2791;-67
2022/11/18 01:44:55;;;;;;;;;;;;;;;21.74;50.72;99819.69;5083333;28;2964;-66
2022/11/18 01:47:21;;;;;;;;;;;;;;;21.75;50.68;99820.41;5083274;28;2825;-67
2022/11/18 01:49:47;;;;;;;;;;;;;;;21.73;50.77;99829.75;5084293;28;2808;-66
2022/11/18 01:52:14;;;;;;;;;;;;;;;21.72;50.74;99825.41;5072432;28;2791;-66
2022/11/18 01:54:41;;;;;;;;;;;;;;;21.71;50.76;99817.44;5056859;28;2841;-66
2022/11/18 01:57:09;;;;;;;;;;;;;;;21.70;50.71;99821.75;5077188;28;2617;-66
2022/11/18 01:59:36;;;;;;;;;;;;;;;21.70;50.71;99825.34;5066723;28;2411;-67
2022/11/18 02:02:04;;;;;;;;;;;;;;;21.70;50.49;99819.59;5065819;28;2955;-66
2022/11/18 02:04:30;;;;;;;;;;;;;;;21.70;50.83;99818.88;5074729;28;2765;-67
2022/11/18 02:06:57;;;;;;;;;;;;;;;21.68;50.78;99822.41;5070692;28;2807;-66
2022/11/18 02:09:23;;;;;;;;;;;;;;;21.70;50.74;99813.81;5085435;28;2882;-66
2022/11/18 02:11:49;;;;;;;;;;;;;;;21.71;50.72;99812.41;5079752;28;2878;-66
2022/11/18 02:14:17;;;;;;;;;;;;;;;21.71;50.87;99815.28;5083447;28;2825;-67
2022/11/18 02:16:50;;;;;;;;;;;;;;;21.70;50.63;99813.81;5081444;28;2776;-66
2022/11/18 02:19:26;;;;;;;;;;;;;;;21.73;50.86;99823.25;5070901;28;2881;-66
2022/11/18 02:21:59;;;;;;;;;;;;;;;21.73;50.61;99814.59;5087445;28;2756;-67
2022/11/18 02:24:35;;;;;;;;;;;;;;;21.74;50.60;99825.47;5071319;28;2755;-66
2022/11/18 02:27:20;;;;;;;;;;;;;;;21.70;50.78;99822.47;5066396;28;2798;-67
2022/11/18 02:29:53;;;;;;;;;;;;;;;21.68;50.55;99825.28;5088185;28;2796;-66
2022/11/18 02:32:22;;;;;;;;;;;;;;;21.69;50.80;99818.13;5087089;28;2898;-67
2022/11/18 02:35:00;;;;;;;;;;;;;;;21.71;50.68;99826.06;5070531;28;3073;-66
2022/11/18 02:37:30;;;;;;;;;;;;;;;21.71;50.67;99826.81;5085003;28;2798;-66
2022/11/18 02:40:02;;;;;;;;;;;;;;;21.71;50.65;99838.31;5077698;28;2858;-67
2022/11/18 02:42:29;;;;;;;;;;;;;;;21.73;50.58;99835.50;5088516;28;3297;-66
2022/11/18 02:44:57;;;;;;;;;;;;;;;21.75;50.73;99834.81;5058083;28;2970;-66
2022/11/18 02:47:23;;;;;;;;;;;;;;;21.74;50.44;99842.00;5070372;28;2994;-67
2022/11/18 02:49:50;;;;;;;;;;;;;;;21.74;50.36;99848.50;5076985;28;2600;-67
2022/11/18 02:52:17;;;;;;;;;;;;;;;21.77;50.61;99839.91;5067836;28;2873;-66
2022/11/18 02:54:43;;;;;;;;;;;;;;;21.74;50.86;99842.75;5071273;28;2828;-66
2022/11/18 02:57:10;;;;;;;;;;;;;;;21.74;50.65;99836.97;5096029;28;3294;-67
2022/11/18 02:59:36;;;;;;;;;;;;;;;21.74;50.56;99834.09;5092541;28;2878;-67
2022/11/18 03:02:02;;;;;;;;;;;;;;;21.73;50.52;99846.28;5093596;28;2861;-66
2022/11/18 03:04:29;;;;;;;;;;;;;;;21.72;50.74;99839.09;5088968;28;2858;-66
2022/11/18 03:07:04;;;;;;;;;;;;;;;21.72;50.40;99839.81;5070905;28;2665;-66
2022/11/18 03:09:32;;;;;;;;;;;;;;;21.72;50.82;99833.31;5087442;28;2861;-66
2022/11/18 03:12:04;;;;;;;;;;;;;;;21.70;50.67;99831.13;5093594;28;3090;-66
2022/11/18 03:14:49;;;;;;;;;;;;;;;21.69;50.62;99829.66;5095725;28;2745;-67
2022/11/18 03:17:28;;;;;;;;;;;;;;;21.67;50.81;99835.38;5083899;28;3174;-66
2022/11/18 03:20:06;;;;;;;;;;;;;;;21.71;50.72;99826.06;5076125;28;2830;-66
2022/11/18 03:22:38;;;;;;;;;;;;;;;21.72;50.74;99831.16;5075418;28;2615;-66
2022/11/18 03:25:06;;;;;;;;;;;;;;;21.73;50.73;99837.66;5067882;28;2808;-66
2022/11/18 03:27:38;;;;;;;;;;;;;;;21.73;50.45;99841.25;5062147;28;2822;-66
2022/11/18 03:30:05;;;;;;;;;;;;;;;21.71;50.72;99844.09;5065104;28;3176;-67
2022/11/18 03:32:32;;;;;;;;;;;;;;;21.72;50.34;99845.56;5066760;28;2799;-66
2022/11/18 03:35:05;;;;;;;;;;;;;;;21.73;50.44;99846.28;5051513;28;2894;-66
2022/11/18 03:37:32;;;;;;;;;;;;;;;21.71;50.55;99855.63;5061494;28;2890;-67
2022/11/18 03:40:00;;;;;;;;;;;;;;;21.69;50.60;99852.72;5063687;28;2888;-67
2022/11/18 03:42:40;;;;;;;;;;;;;;;21.73;50.54;99857.81;5085838;28;2429;-67
2022/11/18 03:45:11;;;;;;;;;;;;;;;21.71;50.44;99844.09;5076716;28;2890;-67
2022/11/18 03:47:39;;;;;;;;;;;;;;;21.72;50.77;99857.09;5062578;28;2765;-66
2022/11/18 03:50:26;;;;;;;;;;;;;;;21.73;50.25;99863.59;5065345;28;2818;-66
2022/11/18 03:52:52;;;;;;;;;;;;;;;21.73;50.52;99861.44;5078558;28;2895;-67
2022/11/18 03:55:22;;;;;;;;;;;;;;;21.73;50.35;99864.31;5062192;28;2928;-66
2022/11/18 03:57:51;;;;;;;;;;;;;;;21.75;50.60;99861.47;5064767;28;2868;-66
2022/11/18 04:00:19;;;;;;;;;;;;;;;21.75;50.62;99861.47;5070422;28;2695;-67
2022/11/18 04:02:45;;;;;;;;;;;;;;;21.78;50.53;99861.53;5077999;28;2854;-67
2022/11/18 04:05:11;;;;;;;;;;;;;;;21.78;50.50;99870.19;5063881;28;2805;-66
2022/11/18 04:07:43;;;;;;;;;;;;;;;21.79;50.40;99871.66;5081907;28;2849;-66
2022/11/18 04:10:17;;;;;;;;;;;;;;;21.80;50.19;99873.13;5068701;28;2820;-66
2022/11/18 04:12:52;;;;;;;;;;;;;;;21.80;50.26;99885.38;5062411;28;2738;-66
2022/11/18 04:15:18;;;;;;;;;;;;;;;21.83;50.45;99877.50;5086579;28;1813;-66
2022/11/18 04:17:45;;;;;;;;;;;;;;;21.85;50.30;99880.44;5081499;28;2806;-66
2022/11/18 04:20:12;;;;;;;;;;;;;;;21.83;50.29;99877.50;5082077;28;2583;-66
2022/11/18 04:22:38;;;;;;;;;;;;;;;21.83;50.40;99886.16;5066081;28;2824;-66
2022/11/18 04:25:05;;;;;;;;;;;;;;;21.82;50.31;99887.59;5085721;28;2406;-66
2022/11/18 04:27:31;;;;;;;;;;;;;;;21.79;50.33;99895.44;5074876;28;2847;-67
2022/11/18 04:29:57;;;;;;;;;;;;;;;21.78;50.49;99902.59;5078266;28;2730;-66
2022/11/18 04:32:24;;;;;;;;;;;;;;;21.79;50.44;99900.47;5074632;28;2855;-67
2022/11/18 04:34:50;;;;;;;;;;;;;;;21.80;50.27;99910.56;5074935;28;3003;-67
2022/11/18 04:37:16;;;;;;;;;;;;;;;21.79;50.23;99906.97;5075378;28;2828;-67
2022/11/18 04:39:43;;;;;;;;;;;;;;;21.80;50.25;99913.47;5068389;28;2973;-66
2022/11/18 04:42:09;;;;;;;;;;;;;;;21.80;50.41;99916.34;5070520;28;3093;-67
2022/11/18 04:44:35;;;;;;;;;;;;;;;21.75;50.33;99913.34;5076547;28;2895;-66
2022/11/18 04:47:02;;;;;;;;;;;;;;;21.75;50.38;99910.47;5074031;28;2799;-66
2022/11/18 04:49:29;;;;;;;;;;;;;;;21.77;50.58;99920.59;5079674;28;2885;-67
2022/11/18 04:51:55;;;;;;;;;;;;;;;21.75;50.47;99918.38;5083111;28;2985;-66
2022/11/18 04:54:21;;;;;;;;;;;;;;;21.73;50.47;99927.69;5084260;28;2630;-66
2022/11/18 04:56:48;;;;;;;;;;;;;;;21.74;50.69;99926.31;5079065;28;2915;-66
2022/11/18 04:59:16;;;;;;;;;;;;;;;21.75;50.44;99929.91;5078706;28;2849;-66
2022/11/18 05:01:43;;;;;;;;;;;;;;;21.77;50.59;99935.00;5083026;28;3022;-67
2022/11/18 05:04:16;;;;;;;;;;;;;;;21.75;50.71;99936.41;5077147;28;2737;-66
2022/11/18 05:06:44;;;;;;;;;;;;;;;21.75;50.25;99936.41;5071266;28;2849;-66
2022/11/18 05:09:12;;;;;;;;;;;;;;;21.79;50.48;99943.69;5064011;28;2951;-66
2022/11/18 05:14:24;;;;;;;;;;;;;;;21.81;50.55;99926.47;5086333;28;2972;-66
2022/11/18 05:16:51;;;;;;;;;;;;;;;21.79;50.44;99932.91;5075845;28;3342;-66
2022/11/18 05:19:17;;;;;;;;;;;;;;;21.81;50.48;99938.72;5085782;28;2941;-66
2022/11/18 05:21:44;;;;;;;;;;;;;;;21.80;50.39;99945.16;5084897;28;2623;-66
2022/11/18 05:24:10;;;;;;;;;;;;;;;21.81;50.27;99946.63;5092116;28;2665;-66
2022/11/18 05:26:36;;;;;;;;;;;;;;;21.81;50.57;99949.53;5082700;28;2729;-66
2022/11/18 05:29:03;;;;;;;;;;;;;;;21.78;50.57;99942.94;5092109;28;2794;-66
2022/11/18 05:31:29;;;;;;;;;;;;;;;21.77;50.45;99943.66;5092403;28;2672;-66
2022/11/18 05:33:55;;;;;;;;;;;;;;;21.75;50.59;99959.44;5083185;28;2769;-66
2022/11/18 05:36:22;;;;;;;;;;;;;;;21.75;50.53;99956.56;5083811;28;2887;-66
2022/11/18 05:38:48;;;;;;;;;;;;;;;21.73;50.54;99961.56;5095679;28;2937;-66
2022/11/18 05:43:09;;;;;;;;;;;;;;;21.72;50.74;99957.94;5092192;28;2592;-66
2022/11/18 05:44:01;;;;;;;;;;;;;;;21.70;50.70;99960.78;5094114;28;2884;-66
2022/11/18 05:46:27;;;;;;;;;;;;;;;21.72;50.55;99971.63;5086406;28;2896;-66
2022/11/18 05:48:53;;;;;;;;;;;;;;;21.71;50.81;99973.75;5092972;28;2751;-67
2022/11/18 05:51:20;;;;;;;;;;;;;;;21.71;50.73;99978.78;5086069;28;3280;-66
2022/11/18 05:53:46;;;;;;;;;;;;;;;21.69;50.69;99990.25;5091680;28;2823;-66
2022/11/18 05:56:19;;;;;;;;;;;;;;;21.69;50.88;99985.25;5070689;28;3368;-67
2022/11/18 05:58:46;;;;;;;;;;;;;;;21.67;51.02;99999.59;5081856;28;6495;-67
2022/11/18 06:01:13;;;;;;;;;;;;;;;21.65;51.03;99993.78;5084275;28;2831;-67
2022/11/18 06:03:39;;;;;;;;;;;;;;;21.69;51.04;99996.78;5071922;28;2888;-68
2022/11/18 06:06:06;;;;;;;;;;;;;;;21.71;51.59;99999.69;5075389;28;3302;-66
2022/11/18 06:08:34;;;;;;;;;;;;;;;19.66;54.11;99999.00;5062936;28;3625;-65
2022/11/18 06:11:00;;;;;;;;;;;;;;;20.96;52.12;100000.38;5073881;28;2991;-65
2022/11/18 06:13:32;;;;;;;;;;;;;;;21.49;52.15;99996.22;5076602;28;2992;-65
2022/11/18 06:15:58;;;;;;;;;;;;;;;21.59;51.85;99999.34;5071513;28;2961;-65
2022/11/18 06:18:28;;;;;;;;;;;;;;;21.75;52.78;100011.31;5078061;28;2661;-64
2022/11/18 06:20:55;;;;;;;;;;;;;;;21.84;52.64;100008.66;5060578;28;3407;-61
2022/11/18 06:23:22;;;;;;;;;;;;;;;22.04;54.80;100017.84;5072818;28;3023;-65
2022/11/18 06:25:48;;;;;;;;;;;;;;;22.20;54.03;100006.00;5071891;28;2844;-64
2022/11/18 06:28:17;;;;;;;;;;;;;;;22.13;52.68;100013.75;5083493;28;2826;-65
2022/11/18 06:30:43;;;;;;;;;;;;;;;22.15;53.18;100008.06;5083432;28;2686;-64
2022/11/18 06:33:10;;;;;;;;;;;;;;;22.21;52.69;100013.25;5083499;28;3134;-65
2022/11/18 06:35:36;;;;;;;;;;;;;;;22.22;52.92;100016.88;5074021;28;2767;-65
2022/11/18 06:38:02;;;;;;;;;;;;;;;22.23;52.92;100019.06;5061617;28;2818;-64
2022/11/18 06:40:29;;;;;;;;;;;;;;;22.26;52.52;100022.75;5065264;28;6801;-65
2022/11/18 06:46:54;;;;;;;;;;;;;;;22.26;52.25;100025.63;5088339;28;2907;-63
2022/11/18 06:48:49;;;;;;;;;;;;;;;22.15;50.40;100039.78;5068957;28;9951;-65
2022/11/18 06:51:16;;;;;;;;;;;;;;;21.80;48.69;100040.25;4993222;28;57081;-68
2022/11/18 06:53:42;;;;;;;;;;;;;;;21.44;49.08;100043.56;5068404;28;4296;-62
2022/11/18 06:56:09;;;;;;;;;;;;;;;21.57;47.86;100042.50;5078893;28;4178;-61
2022/11/18 06:58:35;;;;;;;;;;;;;;;21.60;46.62;100049.81;5081670;28;4531;-59
2022/11/18 07:01:13;;;;;;;;;;;;;;;21.58;45.93;100049.75;5075828;28;4188;-62
2022/11/18 07:03:40;;;;;;;;;;;;;;;21.52;45.16;100052.44;5092408;28;4109;-61
2022/11/18 07:06:06;;;;;;;;;;;;;;;21.67;45.35;100051.44;5072863;28;4242;-61
2022/11/18 07:08:33;;;;;;;;;;;;;;;21.72;45.77;100058.78;5077584;28;4122;-58
2022/11/18 07:10:59;;;;;;;;;;;;;;;21.75;46.18;100062.47;5081358;28;5292;-60
2022/11/18 07:13:26;;;;;;;;;;;;;;;21.77;46.27;100062.53;5071958;28;4095;-59
2022/11/18 07:15:52;;;;;;;;;;;;;;;21.79;46.28;100064.72;5075192;28;5323;-60
2022/11/18 07:18:18;;;;;;;;;;;;;;;21.70;47.01;100067.38;5069400;28;4247;-65
2022/11/18 07:20:45;;;;;;;;;;;;;;;21.75;47.34;100068.94;5071354;28;4209;-60
2022/11/18 07:23:11;;;;;;;;;;;;;;;21.79;47.66;100073.38;5077282;28;4147;-58
2022/11/18 07:25:37;;;;;;;;;;;;;;;21.91;47.63;100070.81;5076732;28;4159;-60
2022/11/18 07:28:10;;;;;;;;;;;;;;;21.95;47.63;100077.44;5080560;28;4016;-60
2022/11/18 07:30:36;;;;;;;;;;;;;;;22.03;47.80;100070.41;5088482;28;4373;-62
2022/11/18 07:33:03;;;;;;;;;;;;;;;21.99;47.84;100079.69;5003595;28;56649;-62
2022/11/18 07:35:29;;;;;;;;;;;;;;;22.07;48.08;100079.91;5069982;28;4246;-64
2022/11/18 07:37:55;;;;;;;;;;;;;;;22.18;47.63;100083.81;5076667;28;5203;-62
2022/11/18 07:40:22;;;;;;;;;;;;;;;22.16;48.04;100083.75;5078648;28;4331;-61
2022/11/18 07:42:48;;;;;;;;;;;;;;;22.13;47.80;100094.50;5088165;28;4128;-59
2022/11/18 07:45:22;;;;;;;;;;;;;;;22.15;48.13;100091.66;5052213;28;4881;-60
2022/11/18 07:47:48;;;;;;;;;;;;;;;22.13;48.06;100088.72;5080645;28;4206;-61
2022/11/18 07:50:15;;;;;;;;;;;;;;;22.41;47.92;100093.81;5083193;28;5214;-61
2022/11/18 07:52:41;;;;;;;;;;;;;;;22.45;47.91;100098.94;5086106;28;5341;-62
2022/11/18 07:55:08;;;;;;;;;;;;;;;22.47;47.84;100093.97;5083639;28;4183;-58
2022/11/18 07:57:34;;;;;;;;;;;;;;;22.30;48.19;100101.44;5084230;28;4112;-67
2022/11/18 08:00:01;;;;;;;;;;;;;;;22.12;48.60;100098.78;5091039;28;4185;-66
2022/11/18 08:02:37;;;;;;;;;;;;;;;22.33;48.24;100093.56;5084106;28;5708;-67
2022/11/18 08:05:03;;;;;;;;;;;;;;;22.38;47.80;100101.66;5088659;28;4167;-69
2022/11/18 08:07:30;;;;;;;;;;;;;;;22.40;47.84;100106.75;5087983;28;4329;-66
2022/11/18 08:09:56;;;;;;;;;;;;;;;22.44;48.03;100115.50;5076860;28;4033;-67
2022/11/18 08:12:22;;;;;;;;;;;;;;;22.48;47.71;100109.84;5080882;28;3993;-67
2022/11/18 08:14:49;;;;;;;;;;;;;;;22.50;47.84;100117.81;5092473;28;4028;-68
2022/11/18 08:17:15;;;;;;;;;;;;;;;22.54;47.63;100101.34;5091321;28;4104;-68
2022/11/18 08:19:41;;;;;;;;;;;;;;;22.56;47.62;100110.06;5092451;27;3983;-68
2022/11/18 08:22:08;;;;;;;;;;;;;;;22.31;48.22;100110.84;5086443;28;4129;-67
2022/11/18 08:24:34;;;;;;;;;;;;;;;22.53;47.91;100122.94;5080066;28;4116;-67
2022/11/18 08:27:01;;;;;;;;;;;;;;;22.65;47.72;100121.78;5075297;28;4096;-66
2022/11/18 08:29:27;;;;;;;;;;;;;;;22.59;47.76;100114.47;5078258;28;4382;-68
2022/11/18 08:31:54;;;;;;;;;;;;;;;22.51;47.83;100125.78;5096193;28;4288;-66
2022/11/18 08:34:21;;;;;;;;;;;;;;;22.40;48.38;100124.06;5084356;28;4226;-67
2022/11/18 08:36:47;;;;;;;;;;;;;;;22.53;47.99;100125.84;5076900;28;5313;-67
2022/11/18 08:39:14;;;;;;;;;;;;;;;22.55;48.08;100137.44;5068714;28;4302;-67
2022/11/18 08:41:41;;;;;;;;;;;;;;;22.58;47.61;100136.06;5092859;28;4598;-67
2022/11/18 08:44:09;;;;;;;;;;;;;;;22.61;47.74;100133.22;5085651;28;4342;-66
2022/11/18 08:46:35;;;;;;;;;;;;;;;22.43;48.10;100142.91;5059439;28;4074;-64
2022/11/18 08:49:02;;;;;;;;;;;;;;;22.34;48.57;100146.97;5085617;28;4161;-65
2022/11/18 08:51:28;;;;;;;;;;;;;;;22.33;48.17;100151.25;5087403;28;6485;-68
2022/11/18 08:53:55;;;;;;;;;;;;;;;22.36;48.12;100149.91;5078218;28;4182;-68
2022/11/18 08:56:21;;;;;;;;;;;;;;;22.34;48.27;100158.53;5081115;28;5349;-67
2022/11/18 08:58:48;;;;;;;;;;;;;;;22.29;48.36;100159.81;5077050;28;4080;-69
2022/11/18 09:01:14;;;;;;;;;;;;;;;22.33;48.38;100157.03;5077691;28;5222;-68
2022/11/18 09:03:40;;;;;;;;;;;;;;;22.32;48.39;100167.13;5071846;28;4062;-66
2022/11/18 09:06:08;;;;;;;;;;;;;;;22.43;48.33;100160.19;5064184;28;4008;-66
2022/11/18 09:08:34;;;;;;;;;;;;;;;22.47;47.68;100171.84;5072737;28;4092;-66
2022/11/18 09:11:04;;;;;;;;;;;;;;;22.50;48.28;100170.50;5079621;28;5452;-66
2022/11/18 09:13:30;;;;;;;;;;;;;;;22.50;48.00;100182.03;5080426;28;5422;-67
2022/11/18 09:16:17;;;;;;;;;;;;;;;22.51;47.68;100189.25;5080727;28;4431;-68
2022/11/18 09:18:49;;;;;;;;;;;;;;;22.32;48.33;100193.06;5076196;28;4172;-66
2022/11/18 09:21:18;;;;;;;;;;;;;;;22.13;48.96;100203.34;5080457;28;4065;-66
2022/11/18 09:23:44;;;;;;;;;;;;;;;22.10;48.31;100205.41;5063732;28;3977;-67
2022/11/18 09:26:11;;;;;;;;;;;;;;;21.84;48.39;100208.25;5072628;28;4314;-67
2022/11/18 09:28:38;;;;;;;;;;;;;;;22.07;48.94;100214.69;5074306;28;4204;-67
2022/11/18 09:31:11;;;;;;;;;;;;;;;22.37;49.06;100214.84;5079337;28;4025;-66
2022/11/18 09:33:37;;;;;;;;;;;;;;;22.44;48.67;100213.59;5073170;28;5523;-67
2022/11/18 09:36:04;;;;;;;;;;;;;;;22.45;48.44;100220.84;5071693;28;4278;-68
2022/11/18 09:38:30;;;;;;;;;;;;;;;22.42;48.58;100227.22;5078736;28;4135;-66
2022/11/18 09:41:04;;;;;;;;;;;;;;;22.48;48.64;100230.28;5077297;28;4204;-66
2022/11/18 09:43:37;;;;;;;;;;;;;;;22.51;48.71;100237.56;5060795;28;4149;-66
2022/11/18 09:46:07;;;;;;;;;;;;;;;22.48;48.72;100236.78;5075217;28;4152;-66
2022/11/18 09:51:18;;;;;;;;;;;;;;;22.51;48.89;100246.22;5056463;28;4330;-66
2022/11/18 09:53:44;;;;;;;;;;;;;;;22.52;49.19;100239.06;5067654;28;4205;-67
2022/11/18 09:56:12;;;;;;;;;;;;;;;22.52;49.16;100239.78;5068768;28;4027;-66
2022/11/18 09:58:38;;;;;;;;;;;;;;;22.36;49.46;100248.00;5058266;28;4094;-67
2022/11/18 10:01:12;;;;;;;;;;;;;;;22.22;49.60;100250.44;5072257;28;5375;-68
2022/11/18 10:03:38;;;;;;;;;;;;;;;22.08;49.94;100253.63;5066375;28;4041;-69
2022/11/18 10:06:08;;;;;;;;;;;;;;;22.30;50.00;100250.69;5065525;28;4261;-69
2022/11/18 10:08:34;;;;;;;;;;;;;;;22.27;49.56;100258.56;5068011;28;4119;-66
2022/11/18 10:11:05;;;;;;;;;;;;;;;22.09;50.18;100261.59;5067087;28;4283;-68
2022/11/18 10:13:42;;;;;;;;;;;;;;;22.12;50.36;100259.50;5071307;28;4205;-67
2022/11/18 10:16:19;;;;;;;;;;;;;;;22.04;49.40;100265.78;5071297;28;5250;-68
2022/11/18 10:18:51;;;;;;;;;;;;;;;21.99;49.77;100263.44;5070756;28;4079;-72
2022/11/18 10:21:31;;;;;;;;;;;;;;;22.10;49.38;100265.94;5071292;28;4144;-71
2022/11/18 10:23:58;;;;;;;;;;;;;;;22.23;49.24;100275.00;5085323;28;3890;-72
2022/11/18 10:26:32;;;;;;;;;;;;;;;22.28;49.30;100270.81;5065060;28;4304;-71
2022/11/18 10:28:58;;;;;;;;;;;;;;;22.33;48.96;100272.41;5070398;28;5180;-71
2022/11/18 10:31:25;;;;;;;;;;;;;;;22.36;48.91;100265.31;5079783;28;4554;-72
2022/11/18 10:33:57;;;;;;;;;;;;;;;22.38;49.18;100268.25;5079024;28;4085;-72
2022/11/18 10:36:23;;;;;;;;;;;;;;;22.40;48.91;100270.44;5076985;28;4153;-71
2022/11/18 10:38:54;;;;;;;;;;;;;;;22.42;49.29;100279.16;5082760;28;5789;-71
2022/11/18 10:41:20;;;;;;;;;;;;;;;22.44;49.10;100270.56;5064712;28;4148;-71
2022/11/18 10:43:49;;;;;;;;;;;;;;;22.44;49.10;100270.56;5086876;28;3986;-71
2022/11/18 10:46:38;;;;;;;;;;;;;;;22.43;49.07;100287.13;5081337;28;5122;-71
2022/11/18 10:49:07;;;;;;;;;;;;;;;22.44;49.14;100293.63;5079346;28;4190;-71
2022/11/18 10:51:33;;;;;;;;;;;;;;;22.45;49.14;100290.09;5078145;28;4108;-71
2022/11/18 10:54:06;;;;;;;;;;;;;;;22.45;49.19;100301.63;5080904;28;4163;-71
2022/11/18 10:56:51;;;;;;;;;;;;;;;22.45;49.17;100304.50;5081882;28;3936;-71
2022/11/18 10:59:55;;;;;;;;;;;;;;;22.46;49.38;100302.34;5078259;28;4169;-72
2022/11/18 11:02:29;;;;;;;;;;;;;;;22.47;49.61;100307.44;5037105;28;4228;-71
2022/11/18 11:04:56;;;;;;;;;;;;;;;22.48;49.55;100308.91;5085364;28;4183;-71
2022/11/18 11:07:24;;;;;;;;;;;;;;;22.49;49.17;100313.25;5085054;28;5400;-71
2022/11/18 11:10:05;;;;;;;;;;;;;;;22.50;49.45;100302.47;5082743;28;5363;-71
2022/11/18 11:12:32;;;;;;;;;;;;;;;22.51;49.65;100303.94;5088626;28;4456;-71
2022/11/18 11:15:00;;;;;;;;;;;;;;;22.50;49.55;100299.59;5085177;28;4159;-71
2022/11/18 11:17:34;;;;;;;;;;;;;;;22.50;49.52;100311.84;5066875;28;4210;-71
2022/11/18 11:20:00;;;;;;;;;;;;;;;22.50;49.26;100308.97;5083136;28;4033;-71
2022/11/18 11:22:27;;;;;;;;;;;;;;;22.51;49.51;100309.69;5088188;28;4117;-71
2022/11/18 11:24:54;;;;;;;;;;;;;;;22.50;49.46;100314.75;5088377;28;4175;-71
2022/11/18 11:27:37;;;;;;;;;;;;;;;22.51;49.41;100307.53;5070445;28;4195;-71
2022/11/18 11:30:23;;;;;;;;;;;;;;;22.52;49.23;100311.91;5075214;28;4176;-71
2022/11/18 11:32:59;;;;;;;;;;;;;;;22.53;49.44;100324.91;5073392;28;4135;-71
2022/11/18 11:35:27;;;;;;;;;;;;;;;22.53;49.47;100319.16;5081332;28;5083;-72
2022/11/18 11:37:53;;;;;;;;;;;;;;;22.54;49.33;100319.88;5070109;28;5421;-71
2022/11/18 11:40:35;;;;;;;;;;;;;;;22.53;49.60;100313.38;5087261;28;4185;-71
2022/11/18 11:43:16;;;;;;;;;;;;;;;22.51;49.41;100319.09;5083117;28;4184;-71
2022/11/18 11:45:57;;;;;;;;;;;;;;;22.51;49.61;100319.09;5072358;28;5453;-71
2022/11/18 11:48:30;;;;;;;;;;;;;;;22.49;49.52;100324.78;5057944;28;4267;-70
2022/11/18 11:51:15;;;;;;;;;;;;;;;21.43;43.97;100310.69;5076723;28;4124;-73
2022/11/18 11:53:46;;;;;;;;;;;;;;;21.61;45.75;100319.19;5071238;28;4135;-76
2022/11/18 11:56:21;;;;;;;;;;;;;;;21.87;46.57;100327.22;5059353;28;5182;-73
2022/11/18 11:58:57;;;;;;;;;;;;;;;21.94;47.91;100326.00;5080410;28;4190;-76
2022/11/18 12:01:27;;;;;;;;;;;;;;;22.26;48.11;100328.44;5071969;28;4258;-71
2022/11/18 12:04:14;;;;;;;;;;;;;;;22.36;48.15;100317.22;5085702;28;4078;-71
2022/11/18 12:06:41;;;;;;;;;;;;;;;22.49;47.81;100330.56;5082824;28;4039;-67
2022/11/18 12:09:13;;;;;;;;;;;;;;;22.71;47.67;100327.59;5092342;28;4130;-68
2022/11/18 12:11:40;;;;;;;;;;;;;;;22.79;47.51;100329.97;5092712;28;4490;-69
2022/11/18 12:14:11;;;;;;;;;;;;;;;22.86;48.00;100331.63;5063623;28;4196;-69
2022/11/18 12:16:45;;;;;;;;;;;;;;;22.91;47.59;100336.09;5078175;28;4099;-68
2022/11/18 12:19:12;;;;;;;;;;;;;;;22.97;47.91;100336.25;5062526;28;4136;-71
2022/11/18 12:21:42;;;;;;;;;;;;;;;22.76;48.33;100345.75;5074518;28;5299;-70
2022/11/18 12:24:30;;;;;;;;;;;;;;;22.89;48.10;100346.84;5089170;28;4138;-70
2022/11/18 12:26:58;;;;;;;;;;;;;;;22.95;47.92;100347.00;5080407;28;4176;-70
2022/11/18 12:29:25;;;;;;;;;;;;;;;23.02;47.68;100348.69;5084993;28;4136;-71
2022/11/18 12:31:53;;;;;;;;;;;;;;;22.99;48.00;100350.75;5066706;28;4086;-71
2022/11/18 12:34:27;;;;;;;;;;;;;;;22.98;48.12;100360.81;5074512;28;4199;-72
2022/11/18 12:36:53;;;;;;;;;;;;;;;23.06;48.16;100359.59;5070362;28;4232;-69
2022/11/18 12:39:23;;;;;;;;;;;;;;;23.08;47.77;100357.50;5081379;28;4112;-71
2022/11/18 12:44:34;;;;;;;;;;;;;;;23.04;48.31;100360.28;5078797;28;4110;-70
2022/11/18 12:47:01;;;;;;;;;;;;;;;23.05;48.35;100358.88;5079227;28;4591;-73
2022/11/18 12:49:27;;;;;;;;;;;;;;;23.05;48.50;100363.91;5072811;28;4029;-72
2022/11/18 12:52:03;;;;;;;;;;;;;;;22.95;49.01;100362.19;5090534;28;3896;-71
2022/11/18 12:54:35;;;;;;;;;;;;;;;22.97;49.06;100365.13;5065074;28;5419;-74
2022/11/18 12:57:03;;;;;;;;;;;;;;;23.04;48.99;100359.53;5088691;28;4024;-73
2022/11/18 12:59:30;;;;;;;;;;;;;;;22.99;49.33;100359.44;5084414;28;4225;-69
2022/11/18 13:02:00;;;;;;;;;;;;;;;23.13;49.28;100364.13;5079737;28;4174;-70
2022/11/18 13:04:26;;;;;;;;;;;;;;;23.12;49.07;100368.44;5073872;28;4288;-70
2022/11/18 13:06:54;;;;;;;;;;;;;;;23.15;49.11;100367.06;5078929;28;4062;-69
2022/11/18 13:09:24;;;;;;;;;;;;;;;23.13;49.39;100370.63;5076125;28;4143;-70
2022/11/18 13:11:52;;;;;;;;;;;;;;;23.13;49.22;100372.78;5073985;28;3949;-70
2022/11/18 13:20:26;;;;;;;;;;;;;;;23.25;48.91;100376.03;5000399;28;5353;-73
2022/11/18 13:25:38;;;;;;;;;;;;;;;23.23;48.65;100383.88;5071956;28;4969;-70